Time;durP1;ratioP1;P1;durP2;ratioP2;P2;SDS_P1;SDS_P2;PMS_P1;PMS_P2;Temp;Humidity;BMP_temperature;BMP_pressure;BME280_temperature;BME280_humidity;BME280_pressure;Samples;Min_cycle;Max_cycle;Signal;HPM_P1;HPM_P2
2022/05/24 00:01:32;;;;;;;6.23;2.63;;;;;;;;;;5054424;28;20852;-62
2022/05/24 00:03:59;;;;;;;2.17;2.07;;;;;;;;;;5054366;28;20456;-62
2022/05/24 00:06:27;;;;;;;2.50;2.30;;;;;;;;;;5054459;28;20468;-62
2022/05/24 00:08:54;;;;;;;5.83;2.10;;;;;;;;;;5054253;28;20940;-62
2022/05/24 00:11:21;;;;;;;1.97;1.77;;;;;;;;;;5054334;28;20543;-62
2022/05/24 00:13:49;;;;;;;3.23;2.33;;;;;;;;;;5054280;28;20455;-62
2022/05/24 00:16:16;;;;;;;2.73;2.30;;;;;;;;;;5054189;28;20539;-62
2022/05/24 00:18:43;;;;;;;2.43;2.33;;;;;;;;;;5054058;28;20882;-62
2022/05/24 00:21:10;;;;;;;2.80;2.40;;;;;;;;;;5054108;28;20968;-62
2022/05/24 00:23:37;;;;;;;2.90;2.10;;;;;;;;;;5054183;28;20448;-62
2022/05/24 00:26:06;;;;;;;3.00;2.40;;;;;;;;;;5054077;28;20880;-62
2022/05/24 00:28:34;;;;;;;2.93;2.57;;;;;;;;;;5053734;28;20495;-62
2022/05/24 00:31:03;;;;;;;2.33;2.13;;;;;;;;;;5053190;28;20916;-62
2022/05/24 00:33:31;;;;;;;3.30;2.10;;;;;;;;;;5054103;28;20808;-62
2022/05/24 00:35:58;;;;;;;3.27;2.30;;;;;;;;;;5053728;28;20994;-62
2022/05/24 00:38:26;;;;;;;2.40;1.93;;;;;;;;;;5053818;28;20480;-62
2022/05/24 00:40:57;;;;;;;2.97;2.43;;;;;;;;;;5053724;28;20474;-62
2022/05/24 00:43:31;;;;;;;3.93;2.50;;;;;;;;;;5053416;28;20563;-62
2022/05/24 00:46:01;;;;;;;2.37;1.93;;;;;;;;;;5053641;28;20454;-62
2022/05/24 00:48:31;;;;;;;2.80;2.60;;;;;;;;;;5053654;28;20512;-62
2022/05/24 00:50:58;;;;;;;2.17;1.97;;;;;;;;;;5053500;28;20943;-62
2022/05/24 00:53:26;;;;;;;2.70;2.37;;;;;;;;;;5053500;28;20878;-62
2022/05/24 00:55:56;;;;;;;4.00;2.53;;;;;;;;;;5053373;28;20816;-62
2022/05/24 00:58:27;;;;;;;2.60;2.30;;;;;;;;;;5053605;28;20456;-62
2022/05/24 01:00:54;;;;;;;3.97;2.80;;;;;;;;;;5053375;28;20999;-62
2022/05/24 01:03:21;;;;;;;2.87;2.37;;;;;;;;;;5053466;28;20896;-62
2022/05/24 01:05:50;;;;;;;2.67;2.47;;;;;;;;;;5053294;28;20485;-62
2022/05/24 01:08:18;;;;;;;2.40;2.20;;;;;;;;;;5053231;28;20479;-62
2022/05/24 01:10:49;;;;;;;2.60;2.40;;;;;;;;;;5053442;28;20449;-62
2022/05/24 01:13:17;;;;;;;3.00;2.43;;;;;;;;;;5053286;28;20461;-62
2022/05/24 01:15:44;;;;;;;3.63;2.10;;;;;;;;;;5053143;28;20445;-62
2022/05/24 01:18:12;;;;;;;2.77;2.50;;;;;;;;;;5053177;28;20939;-62
2022/05/24 01:20:39;;;;;;;2.50;2.07;;;;;;;;;;5053122;28;20451;-62
2022/05/24 01:23:14;;;;;;;2.73;2.50;;;;;;;;;;5053171;28;21003;-62
2022/05/24 01:25:45;;;;;;;2.60;2.40;;;;;;;;;;5053271;28;20542;-63
2022/05/24 01:28:16;;;;;;;2.83;2.63;;;;;;;;;;5053053;28;20579;-62
2022/05/24 01:30:43;;;;;;;3.27;2.63;;;;;;;;;;5052807;28;21010;-62
2022/05/24 01:36:13;;;;;;;5.03;2.83;;;;;;;;;;5052903;28;20455;-62
2022/05/24 01:38:42;;;;;;;4.00;2.90;;;;;;;;;;5053044;28;20488;-62
2022/05/24 01:41:10;;;;;;;4.70;2.43;;;;;;;;;;5052675;28;20449;-62
2022/05/24 01:43:39;;;;;;;4.10;2.50;;;;;;;;;;5052671;28;20511;-62
2022/05/24 01:46:08;;;;;;;3.13;2.83;;;;;;;;;;5052700;28;20545;-62
2022/05/24 01:48:38;;;;;;;2.40;2.20;;;;;;;;;;5052875;28;20565;-62
2022/05/24 01:51:06;;;;;;;2.53;2.33;;;;;;;;;;5052848;28;20484;-62
2022/05/24 01:53:37;;;;;;;4.63;2.83;;;;;;;;;;5052780;28;20857;-62
2022/05/24 01:56:06;;;;;;;5.73;2.33;;;;;;;;;;5052766;28;20453;-62
2022/05/24 01:58:35;;;;;;;3.10;2.40;;;;;;;;;;5052557;28;20531;-62
2022/05/24 02:01:06;;;;;;;2.97;2.37;;;;;;;;;;5052800;28;20792;-62
2022/05/24 02:03:33;;;;;;;3.00;2.80;;;;;;;;;;5052721;28;20962;-62
2022/05/24 02:06:00;;;;;;;2.40;2.27;;;;;;;;;;5052659;28;20807;-62
2022/05/24 02:08:27;;;;;;;2.60;2.40;;;;;;;;;;5052338;28;21033;-62
2022/05/24 02:10:56;;;;;;;7.57;3.00;;;;;;;;;;5052515;28;20448;-62
2022/05/24 02:13:24;;;;;;;3.20;2.90;;;;;;;;;;5052703;28;20448;-62
2022/05/24 02:15:53;;;;;;;3.37;2.90;;;;;;;;;;5052647;28;20447;-62
2022/05/24 02:18:22;;;;;;;4.23;2.93;;;;;;;;;;5052551;28;20534;-62
2022/05/24 02:20:50;;;;;;;3.27;2.57;;;;;;;;;;5052433;28;20447;-62
2022/05/24 02:23:18;;;;;;;2.80;2.60;;;;;;;;;;5052344;28;20539;-62
2022/05/24 02:25:45;;;;;;;2.90;2.70;;;;;;;;;;5052344;28;20452;-62
2022/05/24 02:28:13;;;;;;;3.10;2.90;;;;;;;;;;5052460;28;20480;-62
2022/05/24 02:30:42;;;;;;;3.77;2.93;;;;;;;;;;5052470;28;20456;-62
2022/05/24 02:33:09;;;;;;;5.03;2.53;;;;;;;;;;5052394;28;20543;-62
2022/05/24 02:35:37;;;;;;;3.43;2.40;;;;;;;;;;5052256;28;20454;-62
2022/05/24 02:38:04;;;;;;;4.20;2.93;;;;;;;;;;5052076;28;20456;-62
2022/05/24 02:43:16;;;;;;;4.63;2.90;;;;;;;;;;5052115;28;20499;-62
2022/05/24 02:45:43;;;;;;;3.03;2.83;;;;;;;;;;5052268;28;20444;-62
2022/05/24 02:48:10;;;;;;;3.20;2.93;;;;;;;;;;5052100;28;20486;-62
2022/05/24 02:50:38;;;;;;;4.53;3.20;;;;;;;;;;5052153;28;20480;-62
2022/05/24 02:53:05;;;;;;;3.10;2.83;;;;;;;;;;5053711;28;20452;-62
2022/05/24 02:55:33;;;;;;;3.60;3.30;;;;;;;;;;5055809;28;20539;-62
2022/05/24 02:58:00;;;;;;;3.33;2.90;;;;;;;;;;5055782;28;20538;-62
2022/05/24 03:00:27;;;;;;;2.90;2.70;;;;;;;;;;5055620;28;20459;-62
2022/05/24 03:02:54;;;;;;;3.10;2.90;;;;;;;;;;5055519;28;20539;-62
2022/05/24 03:05:22;;;;;;;3.43;3.13;;;;;;;;;;5055713;28;20535;-62
2022/05/24 03:10:36;;;;;;;2.97;2.77;;;;;;;;;;5055409;28;20587;-62
2022/05/24 03:15:48;;;;;;;3.50;3.13;;;;;;;;;;5055370;28;20432;-62
2022/05/24 03:18:17;;;;;;;4.93;3.20;;;;;;;;;;5055402;28;20444;-62
2022/05/24 03:20:44;;;;;;;2.83;2.50;;;;;;;;;;5055372;28;20847;-62
2022/05/24 03:23:12;;;;;;;3.60;3.30;;;;;;;;;;5055252;28;20454;-62
2022/05/24 03:25:39;;;;;;;5.07;3.50;;;;;;;;;;5055148;28;20480;-62
2022/05/24 03:28:07;;;;;;;2.80;2.50;;;;;;;;;;5054912;28;20506;-62
2022/05/24 03:30:38;;;;;;;3.47;3.13;;;;;;;;;;5055160;28;20543;-62
2022/05/24 03:33:05;;;;;;;3.20;3.00;;;;;;;;;;5055413;28;20535;-62
2022/05/24 03:35:32;;;;;;;3.00;2.80;;;;;;;;;;5055054;28;20454;-62
2022/05/24 03:37:59;;;;;;;3.17;2.93;;;;;;;;;;5054954;28;20448;-62
2022/05/24 03:40:27;;;;;;;3.57;3.27;;;;;;;;;;5054797;28;20482;-62
2022/05/24 03:42:54;;;;;;;5.63;3.90;;;;;;;;;;5054553;28;21067;-62
2022/05/24 03:45:23;;;;;;;7.20;3.80;;;;;;;;;;5054652;28;20931;-62
2022/05/24 03:47:50;;;;;;;4.43;3.53;;;;;;;;;;5054770;28;20475;-62
2022/05/24 03:50:19;;;;;;;4.50;4.10;;;;;;;;;;5054762;28;20514;-62
2022/05/24 03:52:46;;;;;;;4.40;4.00;;;;;;;;;;5054590;28;20452;-62
2022/05/24 03:55:13;;;;;;;6.70;3.90;;;;;;;;;;5054514;28;20532;-62
2022/05/24 04:00:27;;;;;;;5.27;4.30;;;;;;;;;;5054586;28;20439;-62
2022/05/24 04:02:54;;;;;;;4.47;4.17;;;;;;;;;;5054501;28;20535;-62
2022/05/24 04:05:21;;;;;;;4.23;3.83;;;;;;;;;;5054318;28;20451;-62
2022/05/24 04:07:48;;;;;;;4.47;4.10;;;;;;;;;;5054257;28;20567;-62
2022/05/24 04:10:16;;;;;;;7.50;3.97;;;;;;;;;;5054610;28;20452;-63
2022/05/24 04:12:44;;;;;;;4.60;4.30;;;;;;;;;;5054334;28;20451;-62
2022/05/24 04:15:11;;;;;;;4.63;3.90;;;;;;;;;;5054449;28;20459;-62
2022/05/24 04:17:38;;;;;;;5.20;4.30;;;;;;;;;;5054152;28;20539;-62
2022/05/24 04:20:06;;;;;;;4.43;4.03;;;;;;;;;;5054002;28;20452;-62
2022/05/24 04:22:34;;;;;;;4.90;4.33;;;;;;;;;;5054450;28;20840;-62
2022/05/24 04:25:01;;;;;;;4.90;4.30;;;;;;;;;;5054134;28;20448;-62
2022/05/24 04:27:27;;;;;;;4.87;4.03;;;;;;;;;;5053889;28;20449;-62
2022/05/24 04:29:57;;;;;;;4.90;4.50;;;;;;;;;;5053904;28;20456;-62
2022/05/24 04:32:23;;;;;;;8.57;5.17;;;;;;;;;;5053829;28;20456;-61
2022/05/24 04:34:50;;;;;;;4.40;4.10;;;;;;;;;;5053704;28;20448;-62
2022/05/24 04:37:18;;;;;;;5.90;5.40;;;;;;;;;;5053993;28;20594;-61
2022/05/24 04:39:45;;;;;;;13.00;5.27;;;;;;;;;;5053658;28;20993;-62
2022/05/24 04:42:21;;;;;;;8.03;4.60;;;;;;;;;;5053827;28;20527;-62
2022/05/24 04:44:49;;;;;;;5.87;5.23;;;;;;;;;;5053697;28;20815;-62
2022/05/24 04:47:18;;;;;;;6.07;5.50;;;;;;;;;;5053518;28;20551;-62
2022/05/24 04:49:46;;;;;;;5.73;5.33;;;;;;;;;;5053474;28;20489;-62
2022/05/24 04:52:14;;;;;;;5.20;4.90;;;;;;;;;;5053604;28;20452;-62
2022/05/24 04:54:42;;;;;;;6.50;6.00;;;;;;;;;;5053589;28;20540;-62
2022/05/24 04:57:09;;;;;;;5.73;5.37;;;;;;;;;;5053487;28;20522;-62
2022/05/24 04:59:36;;;;;;;6.53;6.00;;;;;;;;;;5053356;28;20935;-62
2022/05/24 05:02:04;;;;;;;7.73;5.70;;;;;;;;;;5052958;28;20540;-62
2022/05/24 05:04:32;;;;;;;6.70;6.17;;;;;;;;;;5053332;28;20484;-62
2022/05/24 05:06:59;;;;;;;8.17;6.10;;;;;;;;;;5053325;28;20539;-61
2022/05/24 05:09:27;;;;;;;6.30;5.87;;;;;;;;;;5053110;28;20483;-61
2022/05/24 05:11:54;;;;;;;9.97;7.90;;;;;;;;;;5053096;28;20461;-61
2022/05/24 05:14:21;;;;;;;8.70;7.10;;;;;;;;;;5053207;28;20811;-61
2022/05/24 05:16:48;;;;;;;8.70;7.43;;;;;;;;;;5052583;28;20480;-61
2022/05/24 05:19:15;;;;;;;7.83;7.10;;;;;;;;;;5053163;28;20452;-61
2022/05/24 05:21:43;;;;;;;8.13;7.40;;;;;;;;;;5053117;28;20452;-61
2022/05/24 05:24:10;;;;;;;7.57;6.87;;;;;;;;;;5052926;28;20454;-62
2022/05/24 05:26:37;;;;;;;7.37;6.67;;;;;;;;;;5052219;28;20474;-62
2022/05/24 05:29:05;;;;;;;8.47;7.77;;;;;;;;;;5052101;28;20965;-62
2022/05/24 05:31:32;;;;;;;8.87;8.07;;;;;;;;;;5052166;28;20455;-62
2022/05/24 05:33:59;;;;;;;8.03;7.07;;;;;;;;;;5052259;28;20939;-62
2022/05/24 05:36:28;;;;;;;9.30;8.50;;;;;;;;;;5052293;28;20535;-62
2022/05/24 05:38:56;;;;;;;7.37;6.77;;;;;;;;;;5052455;28;20452;-62
2022/05/24 05:41:25;;;;;;;11.23;7.53;;;;;;;;;;5052303;28;20535;-61
2022/05/24 05:43:52;;;;;;;8.40;7.47;;;;;;;;;;5052133;28;20654;-62
2022/05/24 05:46:19;;;;;;;8.33;7.63;;;;;;;;;;5052243;28;20535;-62
2022/05/24 05:48:47;;;;;;;8.37;7.33;;;;;;;;;;5052083;28;20479;-62
2022/05/24 05:51:14;;;;;;;8.40;7.70;;;;;;;;;;5052431;28;20752;-62
2022/05/24 05:53:42;;;;;;;6.77;6.27;;;;;;;;;;5052382;28;20448;-63
2022/05/24 05:56:14;;;;;;;8.10;7.40;;;;;;;;;;5052225;28;20449;-61
2022/05/24 05:58:41;;;;;;;7.10;6.50;;;;;;;;;;5052468;28;20542;-62
2022/05/24 06:01:13;;;;;;;7.20;6.60;;;;;;;;;;5052386;28;20452;-62
2022/05/24 06:03:40;;;;;;;7.20;6.70;;;;;;;;;;5052544;28;20883;-62
2022/05/24 06:06:07;;;;;;;8.90;8.10;;;;;;;;;;5052227;28;20456;-62
2022/05/24 06:08:34;;;;;;;7.77;7.17;;;;;;;;;;5052166;28;20553;-62
2022/05/24 06:11:02;;;;;;;7.63;7.13;;;;;;;;;;5052204;28;20940;-62
2022/05/24 06:13:31;;;;;;;6.07;5.67;;;;;;;;;;5052074;28;20539;-62
2022/05/24 06:16:00;;;;;;;7.13;6.60;;;;;;;;;;5052554;28;20455;-62
2022/05/24 06:18:27;;;;;;;7.40;6.90;;;;;;;;;;5052180;28;20535;-62
2022/05/24 06:20:54;;;;;;;6.90;6.40;;;;;;;;;;5052034;28;20455;-62
2022/05/24 06:23:20;;;;;;;6.40;5.90;;;;;;;;;;5052273;28;20523;-62
2022/05/24 06:25:47;;;;;;;6.70;6.20;;;;;;;;;;5052207;28;20891;-62
2022/05/24 06:28:15;;;;;;;6.07;5.43;;;;;;;;;;5053959;28;20522;-62
2022/05/24 06:30:43;;;;;;;5.83;5.43;;;;;;;;;;5056054;28;20454;-62
2022/05/24 06:33:11;;;;;;;6.70;6.20;;;;;;;;;;5056028;28;20535;-62
2022/05/24 06:35:39;;;;;;;6.83;6.30;;;;;;;;;;5055791;28;20459;-62
2022/05/24 06:38:06;;;;;;;7.17;6.57;;;;;;;;;;5055965;28;20450;-62
2022/05/24 06:40:33;;;;;;;6.20;5.80;;;;;;;;;;5052232;28;20988;-62
2022/05/24 06:43:01;;;;;;;6.60;6.13;;;;;;;;;;5050913;28;21001;-62
2022/05/24 06:45:28;;;;;;;6.37;5.93;;;;;;;;;;5055585;28;20540;-61
2022/05/24 06:47:56;;;;;;;6.10;5.60;;;;;;;;;;5055599;28;20467;-62
2022/05/24 06:50:24;;;;;;;6.90;6.50;;;;;;;;;;5055380;28;20570;-58
2022/05/24 06:52:53;;;;;;;6.90;6.40;;;;;;;;;;5055333;28;20947;-59
2022/05/24 06:55:20;;;;;;;6.00;5.60;;;;;;;;;;5055465;28;20448;-59
2022/05/24 06:57:47;;;;;;;6.37;5.87;;;;;;;;;;5055479;28;20452;-59
2022/05/24 07:03:05;;;;;;;6.53;6.03;;;;;;;;;;5050136;28;20511;-60
2022/05/24 07:05:32;;;;;;;6.50;5.90;;;;;;;;;;5046203;28;20456;-61
2022/05/24 07:08:00;;;;;;;5.90;5.37;;;;;;;;;;5056729;28;20992;-62
2022/05/24 07:10:27;;;;;;;5.63;5.17;;;;;;;;;;5053578;28;20475;-62
2022/05/24 07:13:01;;;;;;;5.97;5.53;;;;;;;;;;5042685;28;20456;-62
2022/05/24 07:15:28;;;;;;;6.20;5.60;;;;;;;;;;5051592;28;20537;-64
2022/05/24 07:17:55;;;;;;;6.30;5.10;;;;;;;;;;5057454;28;20448;-60
2022/05/24 07:20:25;;;;;;;5.17;4.80;;;;;;;;;;5050575;28;20459;-59
2022/05/24 07:22:52;;;;;;;5.93;5.43;;;;;;;;;;5042881;28;21014;-59
2022/05/24 07:25:20;;;;;;;7.57;4.33;;;;;;;;;;5034954;28;20535;-59
2022/05/24 07:27:47;;;;;;;4.47;4.07;;;;;;;;;;5041042;28;20465;-59
2022/05/24 07:30:15;;;;;;;4.90;4.60;;;;;;;;;;5058165;28;20563;-60
2022/05/24 07:32:42;;;;;;;4.20;4.00;;;;;;;;;;5058850;28;20460;-61
2022/05/24 07:35:10;;;;;;;4.10;3.80;;;;;;;;;;5058094;28;20943;-59
2022/05/24 07:37:39;;;;;;;6.17;4.30;;;;;;;;;;5054644;28;20785;-61
2022/05/24 07:45:49;;;;;;;4.70;4.40;;;;;;;;;;5054201;28;20459;-60
2022/05/24 07:48:16;;;;;;;4.77;4.47;;;;;;;;;;5054453;28;20479;-60
2022/05/24 07:50:43;;;;;;;4.40;4.10;;;;;;;;;;5054256;28;20567;-60
2022/05/24 07:53:12;;;;;;;5.33;4.83;;;;;;;;;;5054240;28;20951;-60
2022/05/24 07:55:39;;;;;;;4.37;4.07;;;;;;;;;;5054385;28;20514;-60
2022/05/24 07:58:06;;;;;;;6.90;4.10;;;;;;;;;;5042106;28;20672;-59
2022/05/24 08:00:33;;;;;;;5.70;4.30;;;;;;;;;;5043773;28;20508;-60
2022/05/24 08:03:01;;;;;;;5.13;4.60;;;;;;;;;;5036146;28;20487;-60
2022/05/24 08:05:28;;;;;;;5.97;5.50;;;;;;;;;;5053439;28;20468;-60
2022/05/24 08:07:55;;;;;;;4.97;4.57;;;;;;;;;;5038419;28;20457;-60
2022/05/24 08:10:23;;;;;;;9.23;5.17;;;;;;;;;;5051593;28;20495;-60
2022/05/24 08:12:50;;;;;;;4.40;4.10;;;;;;;;;;5052612;28;20969;-59
2022/05/24 08:15:17;;;;;;;4.57;4.17;;;;;;;;;;5033967;28;20544;-59
2022/05/24 08:17:44;;;;;;;3.67;3.47;;;;;;;;;;5043373;28;20500;-59
2022/05/24 08:20:12;;;;;;;4.80;4.20;;;;;;;;;;5050164;28;20782;-60
2022/05/24 08:22:38;;;;;;;4.70;4.40;;;;;;;;;;5048746;28;20591;-60
2022/05/24 08:25:06;;;;;;;4.33;4.03;;;;;;;;;;5040927;28;20449;-60
2022/05/24 08:27:34;;;;;;;4.73;4.43;;;;;;;;;;5050423;28;20530;-60
2022/05/24 08:30:01;;;;;;;4.73;4.43;;;;;;;;;;5042306;28;21004;-60
2022/05/24 08:32:29;;;;;;;3.93;3.73;;;;;;;;;;5052262;28;20453;-60
2022/05/24 08:34:56;;;;;;;5.73;4.00;;;;;;;;;;5052153;28;20952;-60
2022/05/24 08:37:23;;;;;;;4.03;3.83;;;;;;;;;;5053497;28;20811;-60
2022/05/24 08:39:50;;;;;;;5.03;4.63;;;;;;;;;;5053281;28;20463;-60
2022/05/24 08:42:34;;;;;;;7.20;3.20;;;;;;;;;;5053292;28;20448;-63
2022/05/24 08:50:38;;;;;;;4.47;4.10;;;;;;;;;;5043588;28;20990;-59
2022/05/24 08:53:06;;;;;;;4.90;3.20;;;;;;;;;;5051445;28;20873;-59
2022/05/24 08:55:33;;;;;;;2.83;2.63;;;;;;;;;;5054282;28;20512;-61
2022/05/24 08:58:02;;;;;;;2.90;2.80;;;;;;;;;;5056075;28;20547;-59
2022/05/24 09:00:32;;;;;;;2.10;2.00;;;;;;;;;;5053173;28;20535;-60
2022/05/24 09:02:59;;;;;;;2.63;2.40;;;;;;;;;;5053127;28;20543;-60
2022/05/24 09:05:29;;;;;;;2.70;2.50;;;;;;;;;;5052976;28;20939;-60
2022/05/24 09:08:01;;;;;;;2.07;1.90;;;;;;;;;;5055884;28;20456;-63
2022/05/24 09:10:34;;;;;;;2.17;1.73;;;;;;;;;;5056371;28;20475;-59
2022/05/24 09:13:09;;;;;;;2.50;2.30;;;;;;;;;;5053082;28;20522;-60
2022/05/24 09:15:39;;;;;;;3.03;2.20;;;;;;;;;;5052861;28;20535;-63
2022/05/24 09:18:09;;;;;;;2.60;2.20;;;;;;;;;;5053106;28;20453;-59
2022/05/24 09:20:38;;;;;;;1.93;1.70;;;;;;;;;;5052635;28;20448;-59
2022/05/24 09:23:20;;;;;;;1.60;1.50;;;;;;;;;;5053131;28;20453;-55
2022/05/24 09:25:57;;;;;;;2.00;1.90;;;;;;;;;;5053507;28;20463;-57
2022/05/24 09:28:39;;;;;;;1.70;1.60;;;;;;;;;;5052344;28;20871;-59
2022/05/24 09:31:08;;;;;;;1.40;1.30;;;;;;;;;;5052567;28;20577;-59
2022/05/24 09:33:40;;;;;;;1.37;1.27;;;;;;;;;;5052768;28;20448;-59
2022/05/24 09:36:07;;;;;;;1.40;1.30;;;;;;;;;;5055984;28;20536;-63
2022/05/24 09:38:35;;;;;;;1.50;1.40;;;;;;;;;;5034847;28;20518;-58
2022/05/24 09:41:10;;;;;;;1.50;1.23;;;;;;;;;;5034129;28;20544;-58
2022/05/24 09:43:39;;;;;;;1.67;1.57;;;;;;;;;;5054498;28;20516;-59
2022/05/24 09:46:09;;;;;;;1.97;1.47;;;;;;;;;;5052633;28;20451;-61
2022/05/24 09:48:38;;;;;;;1.50;1.33;;;;;;;;;;5052516;28;20540;-60
2022/05/24 09:51:10;;;;;;;1.63;1.30;;;;;;;;;;5055269;28;20483;-60
2022/05/24 09:53:47;;;;;;;1.20;1.10;;;;;;;;;;5052520;28;20543;-60
2022/05/24 09:56:20;;;;;;;1.40;1.30;;;;;;;;;;5052589;28;20486;-60
2022/05/24 09:58:52;;;;;;;1.20;1.10;;;;;;;;;;5058623;28;20627;-60
2022/05/24 10:01:31;;;;;;;1.70;1.20;;;;;;;;;;5058800;28;20549;-59
2022/05/24 10:04:10;;;;;;;1.40;1.30;;;;;;;;;;5042986;28;20530;-59
2022/05/24 10:06:37;;;;;;;1.40;1.30;;;;;;;;;;5050171;28;20548;-59
2022/05/24 10:09:13;;;;;;;6.10;1.20;;;;;;;;;;5052272;28;20551;-60
2022/05/24 10:11:41;;;;;;;2.27;1.87;;;;;;;;;;5057484;28;20502;-57
2022/05/24 10:14:21;;;;;;;3.93;1.70;;;;;;;;;;5059512;28;20448;-62
2022/05/24 10:16:52;;;;;;;4.20;1.60;;;;;;;;;;5065154;28;20982;-61
2022/05/24 10:19:37;;;;;;;1.30;1.20;;;;;;;;;;5058777;28;20542;-59
2022/05/24 10:22:09;;;;;;;1.30;1.20;;;;;;;;;;5046661;28;20452;-61
2022/05/24 10:24:41;;;;;;;2.83;1.43;;;;;;;;;;5036819;28;20479;-61
2022/05/24 10:27:13;;;;;;;1.53;1.30;;;;;;;;;;5041205;28;20480;-61
2022/05/24 10:29:49;;;;;;;1.30;1.20;;;;;;;;;;5036117;28;20471;-58
2022/05/24 10:38:19;;;;;;;1.57;1.47;;;;;;;;;;5049751;28;20463;-63
2022/05/24 10:40:49;;;;;;;1.77;1.60;;;;;;;;;;5063452;28;20864;-63
2022/05/24 10:43:21;;;;;;;1.37;1.27;;;;;;;;;;5054448;28;20524;-63
2022/05/24 10:45:50;;;;;;;1.60;1.50;;;;;;;;;;5059400;28;20796;-63
2022/05/24 10:48:22;;;;;;;1.30;1.20;;;;;;;;;;5055602;28;20444;-63
2022/05/24 10:50:52;;;;;;;1.37;1.23;;;;;;;;;;5060431;28;20511;-63
2022/05/24 10:53:22;;;;;;;1.40;1.30;;;;;;;;;;5053969;28;20444;-60
2022/05/24 10:55:57;;;;;;;1.17;1.07;;;;;;;;;;5053145;28;20455;-60
2022/05/24 10:58:24;;;;;;;1.50;1.20;;;;;;;;;;5055648;28;20440;-60
2022/05/24 11:00:52;;;;;;;1.20;1.10;;;;;;;;;;5055498;28;20448;-60
2022/05/24 11:03:26;;;;;;;1.47;1.30;;;;;;;;;;5055467;28;20542;-60
2022/05/24 11:05:56;;;;;;;1.40;1.30;;;;;;;;;;5055491;28;20452;-60
2022/05/24 11:08:30;;;;;;;1.93;1.27;;;;;;;;;;5055332;28;20540;-60
2022/05/24 11:10:57;;;;;;;2.00;1.13;;;;;;;;;;5055449;28;20479;-60
2022/05/24 11:13:29;;;;;;;5.07;1.10;;;;;;;;;;5054515;28;20448;-60
2022/05/24 11:16:00;;;;;;;1.70;1.40;;;;;;;;;;5055378;28;20487;-60
2022/05/24 11:18:29;;;;;;;1.10;1.00;;;;;;;;;;5055108;28;20448;-60
2022/05/24 11:21:00;;;;;;;0.93;0.93;;;;;;;;;;5055049;28;20545;-60
2022/05/24 11:23:29;;;;;;;1.30;1.07;;;;;;;;;;5055483;28;20471;-60
2022/05/24 11:26:00;;;;;;;1.63;1.50;;;;;;;;;;5055038;28;20444;-60
2022/05/24 11:28:30;;;;;;;1.47;1.37;;;;;;;;;;5055053;28;20539;-60
2022/05/24 11:31:09;;;;;;;2.30;1.13;;;;;;;;;;5054880;28;20476;-60
2022/05/24 11:33:40;;;;;;;1.30;1.20;;;;;;;;;;5054852;28;20820;-60
2022/05/24 11:36:28;;;;;;;2.43;1.17;;;;;;;;;;5054953;28;20499;-60
2022/05/24 11:38:56;;;;;;;1.30;1.20;;;;;;;;;;5054849;28;20888;-60
2022/05/24 11:41:28;;;;;;;1.50;1.40;;;;;;;;;;5054781;28;20876;-60
2022/05/24 11:44:03;;;;;;;1.40;1.30;;;;;;;;;;5054475;28;20512;-60
2022/05/24 11:46:46;;;;;;;2.20;1.73;;;;;;;;;;5054739;28;20448;-60
2022/05/24 11:49:34;;;;;;;1.70;1.60;;;;;;;;;;5054538;28;20448;-60
2022/05/24 11:52:02;;;;;;;1.90;1.80;;;;;;;;;;5054300;28;20452;-60
2022/05/24 11:54:48;;;;;;;1.87;1.50;;;;;;;;;;5054885;28;20460;-60
2022/05/24 11:57:26;;;;;;;1.93;1.83;;;;;;;;;;5054516;28;20978;-60
2022/05/24 11:59:53;;;;;;;1.47;1.37;;;;;;;;;;5054577;28;20444;-60
2022/05/24 12:08:24;;;;;;;2.10;1.50;;;;;;;;;;5056968;28;20946;-60
2022/05/24 12:10:53;;;;;;;4.70;1.50;;;;;;;;;;5054080;28;20563;-60
2022/05/24 12:13:40;;;;;;;2.47;1.50;;;;;;;;;;5054267;28;20484;-60
2022/05/24 12:16:28;;;;;;;4.70;1.50;;;;;;;;;;5054409;28;20535;-60
2022/05/24 12:18:57;;;;;;;1.90;1.70;;;;;;;;;;5053701;28;20974;-60
2022/05/24 12:21:42;;;;;;;1.57;1.40;;;;;;;;;;5053862;28;20487;-60
2022/05/24 12:24:24;;;;;;;1.80;1.70;;;;;;;;;;5053834;28;20535;-60
2022/05/24 12:27:10;;;;;;;1.90;1.80;;;;;;;;;;5053223;28;20531;-60
2022/05/24 12:29:37;;;;;;;1.70;1.60;;;;;;;;;;5053738;28;20539;-60
2022/05/24 12:32:05;;;;;;;5.30;1.90;;;;;;;;;;5054202;28;20484;-60
2022/05/24 12:34:32;;;;;;;2.00;1.83;;;;;;;;;;5053819;28;20809;-60
2022/05/24 12:37:02;;;;;;;1.80;1.70;;;;;;;;;;5053701;28;20465;-60
2022/05/24 12:39:32;;;;;;;2.40;2.00;;;;;;;;;;5053954;28;20562;-60
2022/05/24 12:42:00;;;;;;;1.93;1.83;;;;;;;;;;5053889;28;20621;-60
2022/05/24 12:44:29;;;;;;;1.83;1.73;;;;;;;;;;5053938;28;20515;-60
2022/05/24 12:46:58;;;;;;;2.70;1.97;;;;;;;;;;5053582;28;20460;-60
2022/05/24 12:49:26;;;;;;;1.70;1.57;;;;;;;;;;5053557;28;20535;-60
2022/05/24 12:51:55;;;;;;;1.90;1.80;;;;;;;;;;5053373;28;20871;-60
2022/05/24 12:54:29;;;;;;;1.73;1.63;;;;;;;;;;5053421;28;20459;-60
2022/05/24 12:56:58;;;;;;;1.90;1.67;;;;;;;;;;5053237;28;20452;-60
2022/05/24 12:59:30;;;;;;;2.60;2.40;;;;;;;;;;5053391;28;20486;-60
2022/05/24 13:01:57;;;;;;;2.47;1.57;;;;;;;;;;5053203;28;20870;-60
2022/05/24 13:04:27;;;;;;;2.03;1.80;;;;;;;;;;5053005;28;20448;-60
2022/05/24 13:06:54;;;;;;;1.83;1.73;;;;;;;;;;5052967;28;20475;-60
2022/05/24 13:09:24;;;;;;;1.80;1.67;;;;;;;;;;5052954;28;20451;-60
2022/05/24 13:11:52;;;;;;;2.90;1.83;;;;;;;;;;5053054;28;20855;-60
2022/05/24 13:14:45;;;;;;;1.73;1.63;;;;;;;;;;5053304;28;20536;-60
2022/05/24 13:17:12;;;;;;;3.23;1.90;;;;;;;;;;5053434;28;20840;-60
2022/05/24 13:19:44;;;;;;;2.23;1.77;;;;;;;;;;5053128;28;20444;-58
2022/05/24 13:22:11;;;;;;;5.30;2.53;;;;;;;;;;5052910;28;20456;-59
2022/05/24 13:24:48;;;;;;;2.30;2.20;;;;;;;;;;5052864;28;20531;-58
2022/05/24 13:27:17;;;;;;;1.77;1.67;;;;;;;;;;5052986;28;20959;-59
2022/05/24 13:35:10;;;;;;;2.20;2.00;;;;;;;;;;5052722;28;20450;-58
2022/05/24 13:37:50;;;;;;;2.13;1.93;;;;;;;;;;5052351;28;20452;-58
2022/05/24 13:40:17;;;;;;;4.53;1.77;;;;;;;;;;5052576;28;20454;-58
2022/05/24 13:42:55;;;;;;;2.87;1.73;;;;;;;;;;5052247;28;20476;-58
2022/05/24 13:45:23;;;;;;;4.30;1.77;;;;;;;;;;5052480;28;20912;-58
2022/05/24 13:47:53;;;;;;;2.03;1.70;;;;;;;;;;5052578;28;20487;-60
2022/05/24 13:50:28;;;;;;;2.10;1.90;;;;;;;;;;5052378;28;20531;-60
2022/05/24 13:52:56;;;;;;;2.13;1.50;;;;;;;;;;5052532;28;20551;-61
2022/05/24 13:55:24;;;;;;;1.70;1.60;;;;;;;;;;5052423;28;20459;-58
2022/05/24 13:57:57;;;;;;;1.83;1.70;;;;;;;;;;5052625;28;20449;-59
2022/05/24 14:00:42;;;;;;;1.67;1.57;;;;;;;;;;5052624;28;20510;-58
2022/05/24 14:03:11;;;;;;;1.50;1.40;;;;;;;;;;5052464;28;20935;-59
2022/05/24 14:05:39;;;;;;;1.93;1.33;;;;;;;;;;5052358;28;20459;-58
2022/05/24 14:08:06;;;;;;;1.80;1.70;;;;;;;;;;5052526;28;20448;-58
2022/05/24 14:10:34;;;;;;;1.83;1.43;;;;;;;;;;5052473;28;20932;-58
2022/05/24 14:13:03;;;;;;;1.50;1.40;;;;;;;;;;5052665;28;20506;-58
2022/05/24 14:15:31;;;;;;;1.77;1.67;;;;;;;;;;5052345;28;20866;-58
2022/05/24 14:17:58;;;;;;;1.63;1.47;;;;;;;;;;5052505;28;20456;-59
2022/05/24 14:20:25;;;;;;;1.63;1.53;;;;;;;;;;5052406;28;20447;-59
2022/05/24 14:22:53;;;;;;;1.50;1.40;;;;;;;;;;5052314;28;20983;-59
2022/05/24 14:25:20;;;;;;;2.17;1.63;;;;;;;;;;5052426;28;21068;-59
2022/05/24 14:27:47;;;;;;;1.60;1.50;;;;;;;;;;5052387;28;20531;-59
2022/05/24 14:30:16;;;;;;;1.90;1.80;;;;;;;;;;5052463;28;20458;-59
2022/05/24 14:32:42;;;;;;;1.70;1.60;;;;;;;;;;5052163;28;20486;-59
2022/05/24 14:35:10;;;;;;;2.07;1.97;;;;;;;;;;5052465;28;20448;-59
2022/05/24 14:37:37;;;;;;;2.33;1.60;;;;;;;;;;5052247;28;21019;-59
2022/05/24 14:40:04;;;;;;;2.10;1.90;;;;;;;;;;5052387;28;20448;-59
2022/05/24 14:42:32;;;;;;;2.50;2.30;;;;;;;;;;5052188;28;20488;-59
2022/05/24 14:45:01;;;;;;;1.90;1.80;;;;;;;;;;5052188;28;20539;-60
2022/05/24 14:47:29;;;;;;;2.70;2.50;;;;;;;;;;5052487;28;20506;-59
2022/05/24 14:49:56;;;;;;;4.43;2.70;;;;;;;;;;5055073;28;20448;-59
2022/05/24 14:52:26;;;;;;;2.93;2.40;;;;;;;;;;5056189;28;20572;-59
2022/05/24 14:54:53;;;;;;;2.27;2.07;;;;;;;;;;5056029;28;21035;-59
2022/05/24 14:57:20;;;;;;;2.60;2.23;;;;;;;;;;5055968;28;20506;-59
2022/05/24 14:59:49;;;;;;;2.23;2.10;;;;;;;;;;5055709;28;20488;-59
2022/05/24 15:02:16;;;;;;;4.20;2.20;;;;;;;;;;5055858;28;20497;-59
2022/05/24 15:04:45;;;;;;;1.87;1.77;;;;;;;;;;5055736;28;20827;-59
2022/05/24 15:15:29;;;;;;;1.87;1.77;;;;;;;;;;5055904;28;20443;-59
2022/05/24 15:17:56;;;;;;;1.73;1.47;;;;;;;;;;5055598;28;20555;-58
2022/05/24 15:20:25;;;;;;;1.93;1.83;;;;;;;;;;5055445;28;20449;-59
2022/05/24 15:22:54;;;;;;;1.60;1.50;;;;;;;;;;5055296;28;20574;-59
2022/05/24 15:25:23;;;;;;;1.77;1.60;;;;;;;;;;5055405;28;20544;-59
2022/05/24 15:27:50;;;;;;;1.50;1.40;;;;;;;;;;5055353;28;20444;-59
2022/05/24 15:30:17;;;;;;;1.60;1.30;;;;;;;;;;5055377;28;20535;-59
2022/05/24 15:32:44;;;;;;;1.60;1.37;;;;;;;;;;5055136;28;20484;-59
2022/05/24 15:35:12;;;;;;;1.57;1.23;;;;;;;;;;5055118;28;20539;-59
2022/05/24 15:37:40;;;;;;;1.40;1.30;;;;;;;;;;5055362;28;20543;-59
2022/05/24 15:40:08;;;;;;;1.10;1.00;;;;;;;;;;5055601;28;20455;-59
2022/05/24 15:42:35;;;;;;;2.70;1.27;;;;;;;;;;5054945;28;20474;-59
2022/05/24 15:45:03;;;;;;;2.50;1.70;;;;;;;;;;5054942;28;20522;-59
2022/05/24 15:47:30;;;;;;;0.97;0.97;;;;;;;;;;5054953;28;20846;-59
2022/05/24 15:49:58;;;;;;;1.23;1.13;;;;;;;;;;5055074;28;21003;-59